Bee Ridge, Indiana
Current Conditions -  °F | °C
As of 5:53 PM on Monday 24 Nov 2014 (Local Time) from KHUF Reporting Station
Overcast Overcast  
Wind Chill: 29°   Ceiling: 3600
Heat Index: 39°   Visibility: 10mi
Dew Point: 29°   Wind: 21mph
Humidity: 67%   Direction: 240°WSW
Pressure: 29.8"   Gusts: NA
Location:  39.5158°N, 87.1262°W
Report Text: KHUF 242253Z 24018KT 10SM BKN036 OVC043 04/M02 A2980 RMK AO2 SLP092 T00391017
Loading
Personal Weather Stations






























Interactive Weather Map New forecast layout! Learn more

10-Day Weather Forecast

Advertisements
Track Severe Weather on mobile